sensor_id;sensor_type;location;lat;lon;timestamp;pressure;altitude;pressure_sealevel;temperature;humidity
75225;BME280;63807;45.428;9.202;2022-09-24T19:33:38;100405.61;;;14.91;53.98
75225;BME280;63807;45.428;9.202;2022-09-24T19:40:16;100404.08;;;15.48;53.23
75225;BME280;63807;45.428;9.202;2022-09-24T19:42:41;100404.48;;;15.14;54.10
75225;BME280;63807;45.428;9.202;2022-09-24T19:45:07;100402.73;;;14.19;56.12
75225;BME280;63807;45.428;9.202;2022-09-24T19:47:32;100397.74;;;14.48;56.04
75225;BME280;63807;45.428;9.202;2022-09-24T19:49:57;100403.34;;;14.70;56.33
75225;BME280;63807;45.428;9.202;2022-09-24T19:52:22;100406.40;;;15.60;54.78
75225;BME280;63807;45.428;9.202;2022-09-24T19:54:48;100407.29;;;14.73;56.69
75225;BME280;63807;45.428;9.202;2022-09-24T19:57:13;100409.52;;;14.98;56.61
75225;BME280;63807;45.428;9.202;2022-09-24T19:59:38;100408.68;;;14.31;56.29
75225;BME280;63807;45.428;9.202;2022-09-24T20:02:04;100408.01;;;15.01;55.38
75225;BME280;63807;45.428;9.202;2022-09-24T20:04:29;100404.22;;;14.74;56.07
75225;BME280;63807;45.428;9.202;2022-09-24T20:06:54;100405.37;;;14.60;56.54
75225;BME280;63807;45.428;9.202;2022-09-24T20:09:20;100408.03;;;15.34;55.59
75225;BME280;63807;45.428;9.202;2022-09-24T20:11:45;100405.55;;;14.48;56.80
75225;BME280;63807;45.428;9.202;2022-09-24T20:14:11;100402.85;;;14.25;56.36
75225;BME280;63807;45.428;9.202;2022-09-24T20:16:36;100403.77;;;13.97;57.12
75225;BME280;63807;45.428;9.202;2022-09-24T20:19:02;100405.36;;;14.31;57.15
75225;BME280;63807;45.428;9.202;2022-09-24T20:21:30;100402.73;;;14.96;55.88
75225;BME280;63807;45.428;9.202;2022-09-24T20:23:54;100399.18;;;14.78;56.12
75225;BME280;63807;45.428;9.202;2022-09-24T20:26:18;100400.04;;;14.71;56.51
75225;BME280;63807;45.428;9.202;2022-09-24T20:28:44;100402.38;;;13.93;57.02
75225;BME280;63807;45.428;9.202;2022-09-24T20:31:10;100402.82;;;15.24;56.35
75225;BME280;63807;45.428;9.202;2022-09-24T20:33:35;100400.53;;;14.98;55.80
75225;BME280;63807;45.428;9.202;2022-09-24T20:36:00;100405.66;;;14.94;56.58
75225;BME280;63807;45.428;9.202;2022-09-24T20:38:26;100410.31;;;14.07;57.50
75225;BME280;63807;45.428;9.202;2022-09-24T20:40:51;100405.34;;;14.59;56.99
75225;BME280;63807;45.428;9.202;2022-09-24T20:43:17;100408.54;;;14.21;57.59
75225;BME280;63807;45.428;9.202;2022-09-24T20:45:42;100410.09;;;14.84;57.71
75225;BME280;63807;45.428;9.202;2022-09-24T20:48:07;100410.02;;;14.16;57.53
75225;BME280;63807;45.428;9.202;2022-09-24T20:50:33;100406.99;;;14.87;56.27
75225;BME280;63807;45.428;9.202;2022-09-24T20:52:58;100404.25;;;14.08;57.58
75225;BME280;63807;45.428;9.202;2022-09-24T20:55:23;100398.27;;;15.06;56.29
75225;BME280;63807;45.428;9.202;2022-09-24T20:57:48;100400.14;;;14.28;56.60
75225;BME280;63807;45.428;9.202;2022-09-24T21:00:14;100401.16;;;14.42;56.52
75225;BME280;63807;45.428;9.202;2022-09-24T21:02:40;100400.57;;;14.52;56.88
75225;BME280;63807;45.428;9.202;2022-09-24T21:05:07;100399.90;;;14.70;57.19
75225;BME280;63807;45.428;9.202;2022-09-24T21:07:30;100401.51;;;14.31;57.48
75225;BME280;63807;45.428;9.202;2022-09-24T21:09:56;100400.71;;;13.55;57.75
75225;BME280;63807;45.428;9.202;2022-09-24T21:12:21;100394.43;;;14.29;56.47
75225;BME280;63807;45.428;9.202;2022-09-24T21:14:46;100397.19;;;14.10;55.92
75225;BME280;63807;45.428;9.202;2022-09-24T21:17:12;100396.30;;;14.21;56.35
75225;BME280;63807;45.428;9.202;2022-09-24T21:19:37;100395.47;;;13.80;57.68
75225;BME280;63807;45.428;9.202;2022-09-24T21:22:03;100394.64;;;14.61;55.55
75225;BME280;63807;45.428;9.202;2022-09-24T21:24:28;100392.61;;;14.77;54.64
75225;BME280;63807;45.428;9.202;2022-09-24T21:26:55;100390.58;;;14.78;55.81
75225;BME280;63807;45.428;9.202;2022-09-24T21:29:20;100389.54;;;14.83;54.85
75225;BME280;63807;45.428;9.202;2022-09-24T21:31:45;100390.96;;;14.30;57.07
75225;BME280;63807;45.428;9.202;2022-09-24T21:34:11;100386.76;;;14.43;56.59
75225;BME280;63807;45.428;9.202;2022-09-24T21:36:37;100380.93;;;15.25;55.75
75225;BME280;63807;45.428;9.202;2022-09-24T21:39:03;100380.02;;;14.70;56.62
75225;BME280;63807;45.428;9.202;2022-09-24T21:41:27;100378.29;;;15.33;55.20
75225;BME280;63807;45.428;9.202;2022-09-24T21:43:51;100375.98;;;14.64;56.07
75225;BME280;63807;45.428;9.202;2022-09-24T21:46:16;100377.18;;;15.10;55.83
75225;BME280;63807;45.428;9.202;2022-09-24T21:48:42;100384.72;;;15.39;56.08
75225;BME280;63807;45.428;9.202;2022-09-24T21:51:09;100386.10;;;14.58;57.02
75225;BME280;63807;45.428;9.202;2022-09-24T21:53:33;100379.22;;;15.20;55.67
75225;BME280;63807;45.428;9.202;2022-09-24T21:55:59;100378.35;;;14.49;56.36
75225;BME280;63807;45.428;9.202;2022-09-24T21:58:24;100383.35;;;15.26;55.99
75225;BME280;63807;45.428;9.202;2022-09-24T22:00:49;100386.26;;;14.80;56.10
75225;BME280;63807;45.428;9.202;2022-09-24T22:03:14;100389.16;;;14.42;55.61
75225;BME280;63807;45.428;9.202;2022-09-24T22:05:41;100388.90;;;15.54;55.12
75225;BME280;63807;45.428;9.202;2022-09-24T22:08:06;100389.75;;;14.69;55.62
75225;BME280;63807;45.428;9.202;2022-09-24T22:10:31;100386.81;;;14.60;56.08
75225;BME280;63807;45.428;9.202;2022-09-24T22:12:57;100384.36;;;15.06;55.22
75225;BME280;63807;45.428;9.202;2022-09-24T22:15:22;100384.82;;;14.51;57.19
75225;BME280;63807;45.428;9.202;2022-09-24T22:17:48;100381.27;;;14.92;55.71
75225;BME280;63807;45.428;9.202;2022-09-24T22:20:13;100384.71;;;15.44;54.62
75225;BME280;63807;45.428;9.202;2022-09-24T22:22:38;100382.56;;;14.87;55.52
75225;BME280;63807;45.428;9.202;2022-09-24T22:25:05;100383.36;;;15.53;55.19
75225;BME280;63807;45.428;9.202;2022-09-24T22:27:29;100380.42;;;14.89;54.66
75225;BME280;63807;45.428;9.202;2022-09-24T22:29:55;100374.46;;;14.94;54.64
75225;BME280;63807;45.428;9.202;2022-09-24T22:32:21;100371.51;;;14.87;56.12
75225;BME280;63807;45.428;9.202;2022-09-24T22:34:47;100371.67;;;15.15;54.81
75225;BME280;63807;45.428;9.202;2022-09-24T22:37:13;100367.13;;;14.56;55.03
75225;BME280;63807;45.428;9.202;2022-09-24T22:39:38;100365.84;;;15.54;54.23
75225;BME280;63807;45.428;9.202;2022-09-24T22:42:03;100362.33;;;15.60;53.72
75225;BME280;63807;45.428;9.202;2022-09-24T22:44:28;100360.30;;;15.04;53.96
75225;BME280;63807;45.428;9.202;2022-09-24T22:46:54;100356.55;;;14.46;55.87
75225;BME280;63807;45.428;9.202;2022-09-24T22:49:20;100354.44;;;14.94;54.84
75225;BME280;63807;45.428;9.202;2022-09-24T22:51:45;100351.38;;;14.88;55.34
75225;BME280;63807;45.428;9.202;2022-09-24T22:54:11;100347.45;;;15.24;54.88
75225;BME280;63807;45.428;9.202;2022-09-24T22:56:36;100347.97;;;14.95;54.42
75225;BME280;63807;45.428;9.202;2022-09-24T22:59:02;100345.31;;;15.26;54.34
75225;BME280;63807;45.428;9.202;2022-09-24T23:01:28;100337.41;;;15.77;54.29
75225;BME280;63807;45.428;9.202;2022-09-24T23:03:53;100338.61;;;15.43;54.65
75225;BME280;63807;45.428;9.202;2022-09-24T23:06:18;100342.68;;;15.01;54.96
75225;BME280;63807;45.428;9.202;2022-09-24T23:08:43;100340.97;;;14.96;55.46
75225;BME280;63807;45.428;9.202;2022-09-24T23:11:10;100337.02;;;15.24;55.63
75225;BME280;63807;45.428;9.202;2022-09-24T23:13:34;100339.32;;;15.54;54.72
75225;BME280;63807;45.428;9.202;2022-09-24T23:16:06;100343.07;;;14.77;56.58
75225;BME280;63807;45.428;9.202;2022-09-24T23:18:24;100338.48;;;14.88;57.00
75225;BME280;63807;45.428;9.202;2022-09-24T23:20:50;100337.00;;;14.92;56.66
75225;BME280;63807;45.428;9.202;2022-09-24T23:23:15;100335.86;;;15.81;55.62
75225;BME280;63807;45.428;9.202;2022-09-24T23:25:41;100328.32;;;14.65;56.60
75225;BME280;63807;45.428;9.202;2022-09-24T23:28:06;100325.84;;;15.63;55.32
75225;BME280;63807;45.428;9.202;2022-09-24T23:30:32;100324.74;;;15.58;54.81
75225;BME280;63807;45.428;9.202;2022-09-24T23:32:57;100317.53;;;15.28;54.61
75225;BME280;63807;45.428;9.202;2022-09-24T23:35:23;100317.63;;;14.91;55.56
75225;BME280;63807;45.428;9.202;2022-09-24T23:37:48;100322.14;;;15.66;54.77
75225;BME280;63807;45.428;9.202;2022-09-24T23:40:14;100325.05;;;14.83;55.16
75225;BME280;63807;45.428;9.202;2022-09-24T23:42:39;100322.16;;;14.69;55.42
75225;BME280;63807;45.428;9.202;2022-09-24T23:45:06;100318.40;;;15.08;56.51
75225;BME280;63807;45.428;9.202;2022-09-24T23:47:31;100321.26;;;15.05;56.34
75225;BME280;63807;45.428;9.202;2022-09-24T23:49:56;100322.36;;;15.29;56.22
75225;BME280;63807;45.428;9.202;2022-09-24T23:52:22;100323.65;;;14.39;56.48
75225;BME280;63807;45.428;9.202;2022-09-24T23:54:48;100322.33;;;14.82;56.50
75225;BME280;63807;45.428;9.202;2022-09-24T23:57:13;100323.18;;;14.44;57.81
75225;BME280;63807;45.428;9.202;2022-09-24T23:59:39;100323.09;;;14.01;57.48
